Terminal Aerodrome Forecast
Issued by NWS Charleston, WV

Current Version | Previous Version | Text Only | Print | Product List | Glossary Off
Versions: 1 2 3 4 5 6 7 8 9 10 11 12 13 14 15 16 17 18

369
FTUS41 KRLX 012320
TAFPKB
TAF
KPKB 012320Z 0200/0224 00000KT P6SM VCTS OVC070CB
     FM020400 VRB03KT P6SM SHRA VCTS OVC080CB
     FM020800 21004KT P6SM BKN040
     FM021100 21004KT P6SM BKN025
     FM021500 24008KT P6SM BKN035
     FM022200 28007KT P6SM BKN060=

USA.gov is the U.S. government's official web portal to all federal, state and local government web resources and services.